Time;durP1;ratioP1;P1;durP2;ratioP2;P2;SDS_P1;SDS_P2;PMS_P1;PMS_P2;Temp;Humidity;BMP_temperature;BMP_pressure;BME280_temperature;BME280_humidity;BME280_pressure;Samples;Min_cycle;Max_cycle;Signal;HPM_P1;HPM_P2
2023/10/07 00:01:05;;;;;;;;;;;;;;;19.49;57.33;101600.00;5003474;28;19913;-81
2023/10/07 00:03:56;;;;;;;;;;;;;;;19.36;57.34;101596.47;4998915;28;19913;-80
2023/10/07 00:06:45;;;;;;;;;;;;;;;19.28;57.89;101593.88;4999192;28;19922;-80
2023/10/07 00:09:39;;;;;;;;;;;;;;;19.53;58.20;101590.66;4997920;28;20388;-80
2023/10/07 00:12:31;;;;;;;;;;;;;;;19.50;57.37;101582.31;5000100;28;19922;-81
2023/10/07 00:15:21;;;;;;;;;;;;;;;19.38;57.61;101577.63;5004112;28;19917;-82
2023/10/07 00:18:13;;;;;;;;;;;;;;;19.32;57.78;101575.47;5001675;28;20368;-80
2023/10/07 00:21:05;;;;;;;;;;;;;;;19.35;57.57;101583.81;5000019;28;19918;-80
2023/10/07 00:23:59;;;;;;;;;;;;;;;19.38;57.20;101574.06;5003009;28;19913;-80
2023/10/07 00:26:51;;;;;;;;;;;;;;;19.26;57.68;101574.13;5000880;28;19917;-80
2023/10/07 00:29:54;;;;;;;;;;;;;;;19.31;57.82;101566.38;4999610;28;20288;-80
2023/10/07 00:32:47;;;;;;;;;;;;;;;19.28;57.61;101564.34;5014510;28;19921;-80
2023/10/07 00:35:39;;;;;;;;;;;;;;;19.28;57.77;101564.34;5012588;28;20396;-80
2023/10/07 00:38:37;;;;;;;;;;;;;;;19.21;57.85;101562.19;5014587;28;19917;-80
2023/10/07 00:41:31;;;;;;;;;;;;;;;19.23;58.01;101564.59;5013721;28;19914;-80
2023/10/07 00:44:26;;;;;;;;;;;;;;;19.19;58.39;101564.53;4983902;28;19918;-80
2023/10/07 00:47:18;;;;;;;;;;;;;;;19.12;57.74;101558.00;5000811;28;19913;-80
2023/10/07 00:50:10;;;;;;;;;;;;;;;19.00;58.36;101558.84;4999290;28;19914;-80
2023/10/07 00:53:05;;;;;;;;;;;;;;;18.94;57.96;101556.72;5001413;28;19925;-80
2023/10/07 00:55:58;;;;;;;;;;;;;;;18.91;58.28;101551.88;4985727;28;20376;-80
2023/10/07 00:58:50;;;;;;;;;;;;;;;18.76;58.38;101559.75;5011560;28;19914;-80
2023/10/07 01:01:40;;;;;;;;;;;;;;;18.79;58.30;101561.78;5002331;28;19917;-80
2023/10/07 01:04:40;;;;;;;;;;;;;;;18.73;59.23;101554.16;4999388;28;20308;-79
2023/10/07 01:07:31;;;;;;;;;;;;;;;18.34;60.81;101550.19;4998120;28;19929;-80
2023/10/07 01:10:29;;;;;;;;;;;;;;;18.12;61.60;101545.19;4985778;28;19913;-80
2023/10/07 01:13:29;;;;;;;;;;;;;;;18.09;61.73;101543.91;4997617;28;19917;-80
2023/10/07 01:16:40;;;;;;;;;;;;;;;18.24;60.65;101545.16;4986946;28;19913;-80
2023/10/07 01:19:36;;;;;;;;;;;;;;;18.48;59.76;101539.63;4997041;28;19913;-80
2023/10/07 01:22:35;;;;;;;;;;;;;;;18.63;59.10;101533.41;5014198;28;20373;-80
2023/10/07 01:25:28;;;;;;;;;;;;;;;18.46;59.71;101536.41;4997219;28;19918;-80
2023/10/07 01:28:21;;;;;;;;;;;;;;;18.36;60.38;101532.19;4997867;28;19913;-80
2023/10/07 01:31:13;;;;;;;;;;;;;;;18.41;60.19;101538.59;4997731;28;19917;-80
2023/10/07 01:34:05;;;;;;;;;;;;;;;18.42;59.88;101529.19;4998033;28;19917;-80
2023/10/07 01:37:00;;;;;;;;;;;;;;;18.43;59.42;101528.84;4987090;28;19913;-80
2023/10/07 01:39:56;;;;;;;;;;;;;;;18.13;60.59;101527.53;4997410;28;19918;-80
2023/10/07 01:42:46;;;;;;;;;;;;;;;17.99;60.52;101525.13;4996907;28;19918;-80
2023/10/07 01:45:39;;;;;;;;;;;;;;;18.01;60.57;101530.28;5013622;28;19917;-80
2023/10/07 01:48:31;;;;;;;;;;;;;;;17.92;60.74;101525.72;4998638;28;19914;-80
2023/10/07 01:51:21;;;;;;;;;;;;;;;17.95;60.85;101521.44;5001929;28;19914;-80
2023/10/07 01:54:11;;;;;;;;;;;;;;;17.90;61.42;101525.25;4999276;28;19922;-79
2023/10/07 01:57:04;;;;;;;;;;;;;;;18.01;60.98;101520.06;4999473;28;19917;-79
2023/10/07 01:59:58;;;;;;;;;;;;;;;17.84;61.86;101512.84;4989438;28;19917;-79
2023/10/07 02:02:53;;;;;;;;;;;;;;;17.90;61.66;101524.44;5001317;28;19913;-78
2023/10/07 02:05:48;;;;;;;;;;;;;;;17.83;62.19;101516.75;5005578;28;19914;-79
2023/10/07 02:08:40;;;;;;;;;;;;;;;17.91;61.88;101521.34;5000038;28;19914;-78
2023/10/07 02:11:29;;;;;;;;;;;;;;;17.81;62.89;101510.00;4999783;28;19913;-79
2023/10/07 02:14:18;;;;;;;;;;;;;;;17.80;62.49;101511.94;4989387;28;20381;-79
2023/10/07 02:17:19;;;;;;;;;;;;;;;17.61;63.48;101511.72;4999664;28;20310;-79
2023/10/07 02:20:21;;;;;;;;;;;;;;;17.60;63.32;101509.31;4999556;28;19917;-78
2023/10/07 02:23:20;;;;;;;;;;;;;;;17.53;63.87;101501.59;5015248;28;19914;-78
2023/10/07 02:26:20;;;;;;;;;;;;;;;17.39;64.25;101506.63;5012829;28;19913;-79
2023/10/07 02:29:13;;;;;;;;;;;;;;;17.45;64.01;101502.50;4999423;28;19914;-79
2023/10/07 02:32:17;;;;;;;;;;;;;;;17.29;64.61;101494.13;4999526;28;19914;-79
2023/10/07 02:35:08;;;;;;;;;;;;;;;17.33;64.24;101496.97;5007439;28;19922;-79
2023/10/07 02:38:03;;;;;;;;;;;;;;;17.16;65.84;101498.00;5002389;28;19913;-79
2023/10/07 02:40:55;;;;;;;;;;;;;;;17.47;63.95;101495.50;5003073;28;20304;-78
2023/10/07 02:43:50;;;;;;;;;;;;;;;17.62;63.61;101493.28;4991553;28;19913;-79
2023/10/07 02:46:42;;;;;;;;;;;;;;;17.68;62.94;101492.69;5017447;28;19913;-79
2023/10/07 02:49:34;;;;;;;;;;;;;;;17.69;62.93;101483.28;5003050;28;19914;-79
2023/10/07 02:52:26;;;;;;;;;;;;;;;17.74;62.37;101491.31;5002788;28;19913;-79
2023/10/07 02:58:11;;;;;;;;;;;;;;;17.47;63.03;101489.22;5002136;28;19914;-78
2023/10/07 03:01:16;;;;;;;;;;;;;;;17.10;64.51;101491.13;5002302;28;20296;-79
2023/10/07 03:04:10;;;;;;;;;;;;;;;17.19;64.39;101486.31;5002470;28;19917;-79
2023/10/07 03:07:03;;;;;;;;;;;;;;;17.09;64.57;101486.75;5005505;28;19914;-79
2023/10/07 03:10:16;;;;;;;;;;;;;;;17.30;64.35;101487.47;5002325;28;19918;-79
2023/10/07 03:13:06;;;;;;;;;;;;;;;17.21;64.62;101491.47;5000846;28;19930;-79
2023/10/07 03:19:07;;;;;;;;;;;;;;;16.67;65.81;101480.53;5014024;28;19913;-79
2023/10/07 03:22:09;;;;;;;;;;;;;;;16.81;64.98;101489.28;5001275;28;19922;-78
2023/10/07 03:25:03;;;;;;;;;;;;;;;16.88;65.55;101495.06;5006896;28;19917;-79
2023/10/07 03:27:55;;;;;;;;;;;;;;;16.80;65.38;101484.97;5004540;28;19914;-79
2023/10/07 03:30:51;;;;;;;;;;;;;;;16.70;65.85;101482.63;5002365;28;20289;-79
2023/10/07 03:33:52;;;;;;;;;;;;;;;16.87;65.88;101484.38;5005455;28;19917;-79
2023/10/07 03:42:50;;;;;;;;;;;;;;;17.41;63.50;101480.41;5002530;28;19913;-79
2023/10/07 03:45:43;;;;;;;;;;;;;;;17.32;63.68;101470.66;5007003;28;19921;-79
2023/10/07 03:48:35;;;;;;;;;;;;;;;16.63;66.30;101477.69;5004202;28;19913;-79
2023/10/07 03:51:30;;;;;;;;;;;;;;;16.35;67.78;101479.38;5010973;28;19917;-79
2023/10/07 03:54:29;;;;;;;;;;;;;;;16.13;69.08;101475.00;5012821;28;19917;-79
2023/10/07 03:57:21;;;;;;;;;;;;;;;16.41;68.63;101464.28;5022907;28;19913;-79
2023/10/07 04:00:11;;;;;;;;;;;;;;;16.44;68.99;101471.03;5021016;28;19914;-79
2023/10/07 04:03:07;;;;;;;;;;;;;;;16.74;67.63;101467.09;5021033;28;19917;-79
2023/10/07 04:05:59;;;;;;;;;;;;;;;16.85;67.14;101471.00;5021714;28;19917;-79
2023/10/07 04:08:52;;;;;;;;;;;;;;;16.78;67.21;101468.00;5023200;28;19913;-79
2023/10/07 04:11:48;;;;;;;;;;;;;;;16.77;67.01;101465.59;5023544;28;19913;-79
2023/10/07 04:14:40;;;;;;;;;;;;;;;16.58;67.55;101469.66;5021054;28;20288;-78
2023/10/07 04:17:34;;;;;;;;;;;;;;;16.66;67.51;101476.19;5024527;28;19913;-79
2023/10/07 04:20:31;;;;;;;;;;;;;;;16.65;67.32;101466.38;5021645;28;20296;-79
2023/10/07 04:23:28;;;;;;;;;;;;;;;16.53;68.21;101474.50;5015698;28;19917;-79
2023/10/07 04:26:24;;;;;;;;;;;;;;;16.27;68.68;101475.53;5011384;28;19926;-79
2023/10/07 04:29:20;;;;;;;;;;;;;;;16.44;68.94;101471.03;5015048;28;19917;-79
2023/10/07 04:32:19;;;;;;;;;;;;;;;16.30;68.42;101476.00;5013207;28;19914;-80
2023/10/07 04:35:19;;;;;;;;;;;;;;;15.88;69.85;101470.50;5003102;28;19918;-81
2023/10/07 04:38:18;;;;;;;;;;;;;;;16.13;69.86;101480.50;5008420;28;20377;-81
2023/10/07 04:45:15;;;;;;;;;;;;;;;16.11;69.49;101474.53;5026278;28;19922;-81
2023/10/07 04:47:39;;;;;;;;;;;;;;;16.52;68.02;101470.16;5021719;28;19917;-81
2023/10/07 04:50:37;;;;;;;;;;;;;;;16.14;68.66;101473.06;5025382;28;20372;-81
2023/10/07 04:53:29;;;;;;;;;;;;;;;15.99;69.41;101479.94;5013678;28;19921;-82
2023/10/07 04:56:21;;;;;;;;;;;;;;;15.91;69.79;101475.31;5001570;28;19913;-81
2023/10/07 04:59:13;;;;;;;;;;;;;;;16.05;69.34;101481.34;5002884;28;19917;-81
2023/10/07 05:02:10;;;;;;;;;;;;;;;16.33;67.42;101489.06;5003043;28;19913;-80
2023/10/07 05:05:00;;;;;;;;;;;;;;;15.98;70.21;101483.00;5006436;28;19914;-81
2023/10/07 05:07:52;;;;;;;;;;;;;;;15.80;70.52;101476.81;5003964;28;19914;-81
2023/10/07 05:10:44;;;;;;;;;;;;;;;15.81;70.34;101481.97;5002495;28;19918;-81
2023/10/07 05:13:42;;;;;;;;;;;;;;;15.73;70.92;101482.84;5005112;28;19930;-81
2023/10/07 05:16:34;;;;;;;;;;;;;;;15.87;70.89;101479.84;5003898;28;19917;-81
2023/10/07 05:19:30;;;;;;;;;;;;;;;16.25;68.59;101479.75;5008849;28;19913;-81
2023/10/07 05:22:22;;;;;;;;;;;;;;;16.53;67.50;101471.78;5011814;28;19913;-81
2023/10/07 05:25:14;;;;;;;;;;;;;;;16.33;68.08;101483.56;5005473;28;19917;-81
2023/10/07 05:28:17;;;;;;;;;;;;;;;15.97;69.72;101476.72;5013439;28;19914;-81
2023/10/07 05:31:06;;;;;;;;;;;;;;;15.76;70.58;101481.34;5014874;28;19921;-81
2023/10/07 05:33:58;;;;;;;;;;;;;;;16.12;68.82;101487.09;5014694;28;19917;-81
2023/10/07 05:36:48;;;;;;;;;;;;;;;16.39;68.74;101484.97;5010715;28;19913;-82
2023/10/07 05:39:40;;;;;;;;;;;;;;;16.15;70.92;101500.16;5018306;28;19921;-81
2023/10/07 05:42:32;;;;;;;;;;;;;;;16.23;69.01;101493.81;5024757;28;19913;-82
2023/10/07 05:45:24;;;;;;;;;;;;;;;16.10;69.81;101503.09;5007159;28;19913;-81
2023/10/07 05:48:16;;;;;;;;;;;;;;;16.02;70.89;101505.91;5019792;28;19914;-81
2023/10/07 05:51:08;;;;;;;;;;;;;;;16.07;71.07;101503.78;5008629;28;19913;-81
2023/10/07 05:53:58;;;;;;;;;;;;;;;15.90;70.55;101509.34;5020012;28;20376;-82
2023/10/07 05:56:50;;;;;;;;;;;;;;;15.90;71.07;101503.84;5014479;28;20391;-81
2023/10/07 05:59:42;;;;;;;;;;;;;;;16.24;70.38;101517.38;5009727;28;19913;-82
2023/10/07 06:02:34;;;;;;;;;;;;;;;16.46;70.06;101515.41;5014315;28;20378;-81
2023/10/07 06:05:27;;;;;;;;;;;;;;;16.47;70.26;101511.53;5010875;28;20300;-81
2023/10/07 06:08:19;;;;;;;;;;;;;;;16.67;69.72;101522.56;5011562;28;19918;-82
2023/10/07 06:11:10;;;;;;;;;;;;;;;16.75;69.52;101517.31;5016816;28;19913;-82
2023/10/07 06:14:02;;;;;;;;;;;;;;;17.05;68.59;101518.81;5027739;28;20380;-81
2023/10/07 06:16:52;;;;;;;;;;;;;;;17.27;67.61;101523.09;5015047;28;19914;-82
2023/10/07 06:19:41;;;;;;;;;;;;;;;17.43;67.18;101521.28;5011766;28;19913;-82
2023/10/07 06:22:39;;;;;;;;;;;;;;;17.47;67.37;101524.97;5016036;28;19917;-81
2023/10/07 06:25:35;;;;;;;;;;;;;;;17.68;66.57;101531.19;5022942;28;19913;-82
2023/10/07 06:28:35;;;;;;;;;;;;;;;17.81;66.39;101535.56;5023591;28;19917;-81
2023/10/07 06:31:31;;;;;;;;;;;;;;;17.78;66.32;101539.00;5015169;28;19917;-82
2023/10/07 06:34:25;;;;;;;;;;;;;;;17.52;67.92;101544.00;5004267;28;19922;-82
2023/10/07 06:37:17;;;;;;;;;;;;;;;17.53;68.23;101545.59;5010188;28;19914;-82
2023/10/07 06:40:13;;;;;;;;;;;;;;;17.56;69.00;101546.88;5014918;28;19913;-82
2023/10/07 06:43:05;;;;;;;;;;;;;;;17.53;69.07;101548.34;5012759;28;19914;-82
2023/10/07 06:45:55;;;;;;;;;;;;;;;17.63;69.76;101550.69;5018913;28;19917;-82
2023/10/07 06:48:47;;;;;;;;;;;;;;;17.72;70.23;101554.16;5014833;28;20292;-82
2023/10/07 06:51:41;;;;;;;;;;;;;;;17.84;69.54;101564.34;5021752;28;19917;-82
2023/10/07 06:54:36;;;;;;;;;;;;;;;17.91;68.66;101562.63;5016728;28;19918;-83
2023/10/07 06:57:29;;;;;;;;;;;;;;;17.95;68.55;101562.75;5019879;28;19922;-82
2023/10/07 07:00:23;;;;;;;;;;;;;;;18.03;68.23;101569.28;5018610;28;19913;-82
2023/10/07 07:03:15;;;;;;;;;;;;;;;18.13;68.08;101574.31;5018082;28;19913;-81
2023/10/07 07:06:06;;;;;;;;;;;;;;;18.26;67.76;101573.16;5021117;28;20319;-82
2023/10/07 07:08:57;;;;;;;;;;;;;;;18.28;67.56;101568.94;5020674;28;19917;-82
2023/10/07 07:11:49;;;;;;;;;;;;;;;18.29;67.55;101578.75;5014376;28;19921;-82
2023/10/07 07:14:42;;;;;;;;;;;;;;;18.50;66.99;101589.63;5017826;28;20292;-82
2023/10/07 07:17:37;;;;;;;;;;;;;;;18.50;67.52;101586.88;5012452;28;19913;-81
2023/10/07 07:20:48;;;;;;;;;;;;;;;18.53;66.80;101591.72;5009861;28;19917;-81
2023/10/07 07:23:42;;;;;;;;;;;;;;;18.67;65.77;101592.16;5013170;28;19913;-82
2023/10/07 07:26:34;;;;;;;;;;;;;;;18.70;65.75;101591.47;5017275;28;19917;-82
2023/10/07 07:29:23;;;;;;;;;;;;;;;18.77;65.44;101599.94;5012032;28;19914;-82
2023/10/07 07:32:17;;;;;;;;;;;;;;;18.75;65.53;101604.19;5012134;28;19914;-82
2023/10/07 07:35:09;;;;;;;;;;;;;;;18.76;65.28;101606.59;5016694;28;19918;-82
2023/10/07 07:38:02;;;;;;;;;;;;;;;18.83;65.24;101600.50;5015832;28;19913;-82
2023/10/07 07:40:59;;;;;;;;;;;;;;;18.91;64.72;101593.22;5012065;28;19914;-82
2023/10/07 07:43:58;;;;;;;;;;;;;;;18.89;64.59;101603.81;5012293;28;20492;-82
2023/10/07 07:46:51;;;;;;;;;;;;;;;18.92;64.54;101605.88;5012116;28;19917;-83
2023/10/07 07:49:40;;;;;;;;;;;;;;;19.04;64.59;101611.34;5011920;28;20412;-81
2023/10/07 07:52:33;;;;;;;;;;;;;;;19.10;64.14;101615.44;5005049;28;19914;-83
2023/10/07 07:55:25;;;;;;;;;;;;;;;19.13;63.79;101620.25;5007283;28;19918;-83
2023/10/07 07:58:15;;;;;;;;;;;;;;;19.14;63.46;101617.16;5020136;28;19913;-82
2023/10/07 08:01:05;;;;;;;;;;;;;;;19.36;62.56;101623.25;5010195;28;19913;-83
2023/10/07 08:03:57;;;;;;;;;;;;;;;19.39;62.83;101617.84;5023014;28;19917;-83
2023/10/07 08:06:47;;;;;;;;;;;;;;;19.44;62.37;101620.38;5016892;28;19913;-86
2023/10/07 08:09:37;;;;;;;;;;;;;;;19.43;62.40;101626.22;5012908;28;20185;-82
2023/10/07 08:12:31;;;;;;;;;;;;;;;19.42;62.32;101619.88;5008810;28;20306;-83
2023/10/07 08:15:24;;;;;;;;;;;;;;;19.54;62.45;101613.53;5025101;28;19921;-82
2023/10/07 08:18:16;;;;;;;;;;;;;;;19.58;62.63;101620.75;5023022;28;19913;-82
2023/10/07 08:24:31;;;;;;;;;;;;;;;19.62;62.07;101615.31;5015931;28;19914;-82
2023/10/07 08:30:37;;;;;;;;;;;;;;;19.70;61.88;101613.56;5017867;28;20394;-87
2023/10/07 08:33:33;;;;;;;;;;;;;;;19.77;61.81;101608.22;5011690;28;19921;-83
2023/10/07 08:36:27;;;;;;;;;;;;;;;19.85;61.17;101607.25;5015044;28;19913;-82
2023/10/07 08:39:26;;;;;;;;;;;;;;;19.92;61.38;101599.13;5016411;28;19914;-83
2023/10/07 08:42:24;;;;;;;;;;;;;;;19.96;60.92;101611.84;5016845;28;19913;-84
2023/10/07 08:45:23;;;;;;;;;;;;;;;20.03;61.28;101602.94;5004851;28;20377;-84
2023/10/07 08:48:15;;;;;;;;;;;;;;;20.08;60.98;101600.72;5022171;28;19929;-84
2023/10/07 08:51:10;;;;;;;;;;;;;;;20.14;60.60;101598.50;5025478;28;19913;-84
2023/10/07 08:54:05;;;;;;;;;;;;;;;20.20;60.60;101599.03;5027991;28;19918;-84
2023/10/07 08:57:01;;;;;;;;;;;;;;;20.26;60.35;101595.63;5026332;28;20383;-84
2023/10/07 08:59:59;;;;;;;;;;;;;;;20.33;60.51;101611.59;5023238;28;19913;-84
2023/10/07 09:02:50;;;;;;;;;;;;;;;20.35;60.15;101596.25;5025880;28;19914;-85
2023/10/07 09:05:40;;;;;;;;;;;;;;;20.54;59.58;101597.47;5026937;28;19921;-84
2023/10/07 09:08:33;;;;;;;;;;;;;;;20.53;59.35;101598.63;5022668;28;19917;-83
2023/10/07 09:11:25;;;;;;;;;;;;;;;20.58;59.22;101587.28;5018088;28;19917;-83
2023/10/07 09:14:18;;;;;;;;;;;;;;;20.77;60.06;101590.09;5025489;28;19917;-83
2023/10/07 09:17:10;;;;;;;;;;;;;;;20.84;59.21;101587.44;5028560;28;19917;-83
2023/10/07 09:20:10;;;;;;;;;;;;;;;20.82;59.10;101585.06;5026564;28;19913;-84
2023/10/07 09:23:22;;;;;;;;;;;;;;;20.97;58.71;101580.63;5024691;28;20106;-84
2023/10/07 09:26:30;;;;;;;;;;;;;;;20.99;59.09;101588.53;5028237;28;19920;-85
2023/10/07 09:29:25;;;;;;;;;;;;;;;21.12;58.72;101582.50;5024345;28;19933;-85
2023/10/07 09:32:21;;;;;;;;;;;;;;;21.14;59.05;101585.72;5008143;28;20288;-85
2023/10/07 09:35:19;;;;;;;;;;;;;;;21.24;58.20;101582.34;5003740;28;19917;-86
2023/10/07 09:38:12;;;;;;;;;;;;;;;21.31;58.45;101579.72;5006723;28;19914;-85
2023/10/07 09:41:23;;;;;;;;;;;;;;;21.37;58.46;101579.44;5004568;28;20292;-85
2023/10/07 09:44:28;;;;;;;;;;;;;;;21.41;58.28;101577.53;5006602;28;19914;-86
2023/10/07 09:47:21;;;;;;;;;;;;;;;21.45;58.13;101581.16;5004669;28;20380;-86
2023/10/07 09:50:27;;;;;;;;;;;;;;;21.61;57.00;101570.75;5007814;28;19917;-86
2023/10/07 09:53:36;;;;;;;;;;;;;;;21.69;56.76;101567.75;5007769;28;19917;-86
2023/10/07 09:56:31;;;;;;;;;;;;;;;21.76;56.33;101567.06;5008513;28;19917;-86
2023/10/07 09:59:26;;;;;;;;;;;;;;;21.85;55.85;101567.59;5001974;28;19917;-86
2023/10/07 10:02:28;;;;;;;;;;;;;;;21.83;56.14;101567.19;5007049;28;19917;-86
2023/10/07 10:05:26;;;;;;;;;;;;;;;21.85;55.93;101570.38;5008730;28;19917;-85
2023/10/07 10:08:29;;;;;;;;;;;;;;;21.92;55.98;101562.19;5005783;28;19914;-86
2023/10/07 10:11:30;;;;;;;;;;;;;;;21.97;55.78;101561.91;5006560;28;19914;-86
2023/10/07 10:14:30;;;;;;;;;;;;;;;21.97;55.88;101566.66;5003137;28;19918;-86
2023/10/07 10:17:37;;;;;;;;;;;;;;;21.97;55.50;101570.22;5006391;28;20483;-86
2023/10/07 10:20:42;;;;;;;;;;;;;;;22.02;55.33;101567.13;5005186;28;19914;-86
2023/10/07 10:23:37;;;;;;;;;;;;;;;22.06;55.11;101569.94;5007142;28;19939;-86
2023/10/07 10:26:33;;;;;;;;;;;;;;;22.06;55.33;101565.22;5007941;28;19922;-87
2023/10/07 10:29:25;;;;;;;;;;;;;;;22.07;55.33;101566.81;5002898;28;20380;-87
2023/10/07 10:32:22;;;;;;;;;;;;;;;22.07;55.44;101558.50;5007508;28;19913;-86
2023/10/07 10:35:23;;;;;;;;;;;;;;;22.11;55.48;101556.59;5020212;28;19917;-85
2023/10/07 10:38:13;;;;;;;;;;;;;;;22.10;55.45;101554.97;5014448;28;20583;-85
2023/10/07 10:41:06;;;;;;;;;;;;;;;22.10;55.50;101560.53;5022299;28;19914;-85
2023/10/07 10:44:07;;;;;;;;;;;;;;;22.15;55.23;101553.84;5001858;28;19918;-85
2023/10/07 10:46:57;;;;;;;;;;;;;;;22.17;55.27;101551.53;5004478;28;19933;-85
2023/10/07 10:49:51;;;;;;;;;;;;;;;22.22;55.33;101547.63;5002099;28;19914;-85
2023/10/07 10:52:48;;;;;;;;;;;;;;;22.23;55.80;101552.00;5002432;28;19917;-84
2023/10/07 10:55:38;;;;;;;;;;;;;;;22.27;55.60;101542.56;5026092;28;20327;-85
2023/10/07 10:58:30;;;;;;;;;;;;;;;22.30;55.70;101541.81;5020813;28;19929;-85
2023/10/07 11:01:19;;;;;;;;;;;;;;;22.29;55.64;101536.66;5020326;28;19913;-84
2023/10/07 11:04:19;;;;;;;;;;;;;;;23.30;53.21;101539.09;5005743;28;20373;-81
2023/10/07 11:07:11;;;;;;;;;;;;;;;23.63;53.05;101529.06;5016401;28;19917;-81
2023/10/07 11:10:04;;;;;;;;;;;;;;;23.90;52.49;101530.50;5026207;28;19917;-81
2023/10/07 11:12:54;;;;;;;;;;;;;;;24.31;51.04;101527.59;5018771;28;19913;-81
2023/10/07 11:15:44;;;;;;;;;;;;;;;24.48;50.25;101521.34;5019695;28;19917;-80
2023/10/07 11:18:36;;;;;;;;;;;;;;;24.92;49.20;101521.13;5020673;28;19913;-81
2023/10/07 11:21:29;;;;;;;;;;;;;;;26.02;46.51;101518.41;5011354;28;19913;-80
2023/10/07 11:24:34;;;;;;;;;;;;;;;30.04;37.42;101514.81;5027683;28;19917;-79
2023/10/07 11:27:26;;;;;;;;;;;;;;;34.97;28.63;101512.59;5024251;28;19921;-80
2023/10/07 11:30:21;;;;;;;;;;;;;;;37.87;24.66;101516.28;5023295;28;19914;-81
2023/10/07 11:33:13;;;;;;;;;;;;;;;38.56;23.48;101520.72;5018576;28;19913;-80
2023/10/07 11:36:03;;;;;;;;;;;;;;;39.61;21.98;101509.44;5015463;28;19918;-81
2023/10/07 11:38:55;;;;;;;;;;;;;;;39.29;22.19;101508.47;5022746;28;19917;-81
2023/10/07 11:41:47;;;;;;;;;;;;;;;39.04;22.46;101504.22;5010121;28;19917;-78
2023/10/07 11:44:36;;;;;;;;;;;;;;;39.82;21.14;101496.00;5019900;28;19913;-80
2023/10/07 11:47:24;;;;;;;;;;;;;;;39.69;21.56;101487.78;5026644;28;19914;-80
2023/10/07 11:50:16;;;;;;;;;;;;;;;39.31;21.95;101494.53;5004318;28;19913;-81
2023/10/07 11:53:06;;;;;;;;;;;;;;;39.11;22.02;101489.59;5002295;28;19914;-81
2023/10/07 11:55:53;;;;;;;;;;;;;;;38.74;22.26;101477.88;5005115;28;19925;-81
2023/10/07 11:58:46;;;;;;;;;;;;;;;39.12;21.88;101467.59;5009362;28;19913;-81
2023/10/07 12:01:35;;;;;;;;;;;;;;;38.92;22.20;101477.66;5023511;28;19913;-82
2023/10/07 12:04:27;;;;;;;;;;;;;;;38.50;22.46;101471.53;5018393;28;19913;-80
2023/10/07 12:07:16;;;;;;;;;;;;;;;38.26;22.60;101468.75;5015631;28;19913;-78
2023/10/07 12:10:15;;;;;;;;;;;;;;;37.51;23.47;101469.06;5021030;28;19917;-80
2023/10/07 12:13:11;;;;;;;;;;;;;;;37.60;23.36;101460.50;5017802;28;19917;-79
2023/10/07 12:16:03;;;;;;;;;;;;;;;37.72;23.47;101466.41;5020529;28;19921;-79
2023/10/07 12:18:55;;;;;;;;;;;;;;;37.32;24.19;101456.28;5016235;28;19913;-79
2023/10/07 12:21:47;;;;;;;;;;;;;;;35.88;25.77;101450.56;5016638;28;19913;-80
2023/10/07 12:24:39;;;;;;;;;;;;;;;33.82;28.65;101446.72;5023720;28;19913;-80
2023/10/07 12:27:29;;;;;;;;;;;;;;;31.97;32.08;101432.06;5020066;28;19913;-79
2023/10/07 12:30:24;;;;;;;;;;;;;;;30.88;33.58;101430.81;5017485;28;19921;-79
2023/10/07 12:33:18;;;;;;;;;;;;;;;30.11;35.29;101422.13;5021371;28;19913;-80
2023/10/07 12:36:10;;;;;;;;;;;;;;;29.42;36.72;101428.59;5025290;28;19921;-79
2023/10/07 12:39:03;;;;;;;;;;;;;;;29.04;37.53;101433.63;5018730;28;19921;-81
2023/10/07 12:41:59;;;;;;;;;;;;;;;28.61;38.45;101428.63;5018770;28;19917;-80
2023/10/07 12:44:51;;;;;;;;;;;;;;;28.29;39.89;101425.50;5020155;28;19925;-79
2023/10/07 12:47:40;;;;;;;;;;;;;;;28.49;39.14;101412.44;5021943;28;19914;-82
2023/10/07 12:50:33;;;;;;;62.58;24.67;;;;;;;28.74;38.88;101407.28;5012980;28;20404;-76
2023/10/07 12:53:28;;;;;;;47.17;22.65;;;;;;;28.63;38.83;101411.44;5004122;28;20504;-78
2023/10/07 12:56:22;;;;;;;30.98;19.80;;;;;;;29.10;38.06;101413.13;5017630;28;20041;-77
2023/10/07 12:59:35;;;;;;;37.05;18.80;;;;;;;29.13;37.95;101397.47;5012865;28;20506;-77
2023/10/07 13:02:30;;;;;;;30.67;18.95;;;;;;;28.91;38.09;101402.63;5016357;28;20496;-77
2023/10/07 13:05:20;;;;;;;30.15;19.75;;;;;;;28.54;38.92;101392.38;5011017;28;20416;-77
2023/10/07 13:08:15;;;;;;;33.30;23.10;;;;;;;28.64;38.35;101393.44;5012655;28;20041;-77
2023/10/07 13:11:16;;;;;;;33.35;19.92;;;;;;;28.78;38.44;101399.63;5005024;28;20034;-77
2023/10/07 13:14:11;;;;;;;30.92;18.70;;;;;;;28.16;39.61;101404.88;4997456;28;20416;-77
2023/10/07 13:17:06;;;;;;;32.13;20.23;;;;;;;27.98;39.86;101405.88;5007939;28;20038;-77
2023/10/07 13:20:00;;;;;;;28.55;19.80;;;;;;;27.80;40.10;101396.88;5010929;28;20046;-77
2023/10/07 13:22:52;;;;;;;39.65;20.95;;;;;;;27.48;41.10;101399.22;5014834;28;20046;-77
2023/10/07 13:25:46;;;;;;;42.15;21.10;;;;;;;27.61;40.94;101398.28;5021563;28;20416;-77
2023/10/07 13:28:38;;;;;;;30.65;19.23;;;;;;;27.93;40.37;101395.16;5015268;28;20042;-77
2023/10/07 13:31:33;;;;;;;34.22;19.52;;;;;;;27.79;40.58;101381.31;5021416;28;20049;-79
2023/10/07 13:34:26;;;;;;;33.15;19.55;;;;;;;27.32;41.82;101376.59;5008829;28;20034;-78
2023/10/07 13:37:25;;;;;;;33.03;21.30;;;;;;;27.17;41.97;101387.88;5010151;28;20054;-78
2023/10/07 13:40:16;;;;;;;32.10;20.27;;;;;;;27.03;42.46;101376.84;5014834;28;20033;-78
2023/10/07 13:43:10;;;;;;;40.67;22.10;;;;;;;26.87;42.87;101371.00;5007895;28;20042;-77
2023/10/07 13:46:00;;;;;;;37.08;22.20;;;;;;;26.84;43.32;101357.84;5012438;28;20065;-77
2023/10/07 13:48:55;;;;;;;31.55;21.00;;;;;;;26.76;43.11;101359.13;5004797;28;20049;-76
2023/10/07 13:51:51;;;;;;;35.58;21.13;;;;;;;26.67;43.96;101367.13;5009250;28;20037;-77
2023/10/07 13:54:47;;;;;;;33.60;20.55;;;;;;;26.56;43.75;101360.84;5011051;28;20037;-77
2023/10/07 13:57:42;;;;;;;31.80;21.42;;;;;;;26.68;43.42;101357.56;5004264;28;20037;-76
2023/10/07 14:00:38;;;;;;;37.47;20.40;;;;;;;26.62;43.70;101353.59;5015303;28;20041;-80
2023/10/07 14:03:35;;;;;;;;;;;;;;;27.66;42.21;101357.91;5001661;28;20042;-75
2023/10/07 14:06:27;;;;;;;;;;;;;;;30.14;36.77;101357.50;4993020;28;19914;-77
2023/10/07 14:09:24;;;;;;;;;;;;;;;30.66;35.21;101350.34;4993327;28;19913;-76
2023/10/07 14:12:16;;;;;;;;;;;;;;;30.13;35.96;101346.69;4993136;28;19914;-76
2023/10/07 14:15:08;;;;;;;;;;;;;;;30.64;35.20;101338.72;4996796;28;20376;-77
2023/10/07 14:18:00;;;;;;;;;;;;;;;31.04;34.51;101339.34;4994995;28;20296;-76
2023/10/07 14:20:55;;;;;;;;;;;;;;;30.86;34.36;101342.59;4993366;28;20299;-77
2023/10/07 14:23:47;;;;;;;;;;;;;;;31.29;33.53;101340.28;4996283;28;19913;-76
2023/10/07 14:26:39;;;;;;;;;;;;;;;29.86;35.68;101337.66;4996684;28;20404;-75
2023/10/07 14:29:30;;;;;;;;;;;;;;;28.78;37.82;101328.84;4995204;28;19918;-75
2023/10/07 14:32:27;;;;;;;;;;;;;;;29.33;37.39;101329.06;4997426;28;19913;-75
2023/10/07 14:35:25;;;;;;;;;;;;;;;29.13;37.04;101333.81;4996271;28;19922;-75
2023/10/07 14:38:17;;;;;;;;;;;;;;;29.47;36.96;101335.63;5011614;28;19914;-75
2023/10/07 14:41:09;;;;;;;;;;;;;;;29.73;36.16;101331.91;5003421;28;19961;-75
2023/10/07 14:44:01;;;;;;;;;;;;;;;29.48;36.82;101340.00;4995405;28;19918;-75
2023/10/07 14:46:53;;;;;;;;;;;;;;;28.73;38.42;101334.91;4999454;28;19914;-75
2023/10/07 14:49:45;;;;;;;;;;;;;;;28.79;38.21;101336.81;5008474;28;19917;-75
2023/10/07 14:52:37;;;;;;;;;;;;;;;28.83;38.28;101342.34;5007788;28;19913;-74
2023/10/07 14:55:32;;;;;;;;;;;;;;;28.57;38.42;101340.34;5014280;28;19918;-75
2023/10/07 14:58:24;;;;;;;;;;;;;;;27.88;39.93;101334.09;5008978;28;20372;-74
2023/10/07 15:01:14;;;;;;;;;;;;;;;27.74;40.69;101342.63;5023518;28;19913;-78
2023/10/07 15:04:06;;;;;;;;;;;;;;;27.40;41.48;101345.38;5030231;28;19913;-78
2023/10/07 15:06:58;;;;;;;;;;;;;;;27.34;41.70;101341.44;5033440;28;19917;-78